sensor_id;sensor_type;location;lat;lon;timestamp;temperature;humidity
26224;DHT22;14820;48.682;8.890;2023-07-20T00:00:28;18.40;99.90
26224;DHT22;14820;48.682;8.890;2023-07-20T00:03:10;18.30;99.90
26224;DHT22;14820;48.682;8.890;2023-07-20T00:05:36;18.30;99.90
26224;DHT22;14820;48.682;8.890;2023-07-20T00:08:02;18.20;99.90
26224;DHT22;14820;48.682;8.890;2023-07-20T00:10:27;18.20;99.90
26224;DHT22;14820;48.682;8.890;2023-07-20T00:12:53;18.10;99.90
26224;DHT22;14820;48.682;8.890;2023-07-20T00:15:18;18.10;99.90
26224;DHT22;14820;48.682;8.890;2023-07-20T00:17:44;18.00;99.90
26224;DHT22;14820;48.682;8.890;2023-07-20T00:20:10;18.00;99.90
26224;DHT22;14820;48.682;8.890;2023-07-20T00:22:36;17.90;99.90
26224;DHT22;14820;48.682;8.890;2023-07-20T00:25:02;17.90;99.90
26224;DHT22;14820;48.682;8.890;2023-07-20T00:27:28;17.80;99.90
26224;DHT22;14820;48.682;8.890;2023-07-20T00:29:54;17.80;99.90
26224;DHT22;14820;48.682;8.890;2023-07-20T00:32:19;17.70;99.90
26224;DHT22;14820;48.682;8.890;2023-07-20T00:34:45;17.70;99.90
26224;DHT22;14820;48.682;8.890;2023-07-20T00:37:10;17.60;99.90
26224;DHT22;14820;48.682;8.890;2023-07-20T00:39:36;17.60;99.90
26224;DHT22;14820;48.682;8.890;2023-07-20T00:42:02;17.50;99.90
26224;DHT22;14820;48.682;8.890;2023-07-20T00:44:28;17.40;99.90
26224;DHT22;14820;48.682;8.890;2023-07-20T00:46:54;17.30;99.90
26224;DHT22;14820;48.682;8.890;2023-07-20T00:49:19;17.30;99.90
26224;DHT22;14820;48.682;8.890;2023-07-20T00:51:48;17.20;99.90
26224;DHT22;14820;48.682;8.890;2023-07-20T00:54:14;17.10;99.90
26224;DHT22;14820;48.682;8.890;2023-07-20T00:56:40;17.00;99.90
26224;DHT22;14820;48.682;8.890;2023-07-20T00:59:06;16.90;99.90
26224;DHT22;14820;48.682;8.890;2023-07-20T01:01:32;16.80;99.90
26224;DHT22;14820;48.682;8.890;2023-07-20T01:03:58;16.70;99.90
26224;DHT22;14820;48.682;8.890;2023-07-20T01:06:33;16.60;99.90
26224;DHT22;14820;48.682;8.890;2023-07-20T01:14:08;16.30;99.90
26224;DHT22;14820;48.682;8.890;2023-07-20T01:16:34;16.30;99.90
26224;DHT22;14820;48.682;8.890;2023-07-20T01:19:00;16.30;99.90
26224;DHT22;14820;48.682;8.890;2023-07-20T01:21:44;16.30;99.90
26224;DHT22;14820;48.682;8.890;2023-07-20T01:27:05;16.20;99.90
26224;DHT22;14820;48.682;8.890;2023-07-20T01:32:23;16.00;99.90
26224;DHT22;14820;48.682;8.890;2023-07-20T01:34:51;16.00;99.90
26224;DHT22;14820;48.682;8.890;2023-07-20T01:37:18;15.90;99.90
26224;DHT22;14820;48.682;8.890;2023-07-20T01:39:45;15.90;99.90
26224;DHT22;14820;48.682;8.890;2023-07-20T01:42:12;15.90;99.90
26224;DHT22;14820;48.682;8.890;2023-07-20T01:44:38;15.90;99.90
26224;DHT22;14820;48.682;8.890;2023-07-20T01:47:04;15.90;99.90
26224;DHT22;14820;48.682;8.890;2023-07-20T01:49:29;15.90;99.90
26224;DHT22;14820;48.682;8.890;2023-07-20T01:51:55;15.90;99.90
26224;DHT22;14820;48.682;8.890;2023-07-20T01:54:21;16.00;99.90
26224;DHT22;14820;48.682;8.890;2023-07-20T01:56:46;16.00;99.90
26224;DHT22;14820;48.682;8.890;2023-07-20T01:59:12;16.00;99.90
26224;DHT22;14820;48.682;8.890;2023-07-20T02:01:38;16.00;99.90
26224;DHT22;14820;48.682;8.890;2023-07-20T02:04:03;15.90;99.90
26224;DHT22;14820;48.682;8.890;2023-07-20T02:06:30;15.90;99.90
26224;DHT22;14820;48.682;8.890;2023-07-20T02:08:55;15.90;99.90
26224;DHT22;14820;48.682;8.890;2023-07-20T02:11:21;15.80;99.90
26224;DHT22;14820;48.682;8.890;2023-07-20T02:13:47;15.80;99.90
26224;DHT22;14820;48.682;8.890;2023-07-20T02:16:12;15.80;99.90
26224;DHT22;14820;48.682;8.890;2023-07-20T02:18:38;15.70;99.90
26224;DHT22;14820;48.682;8.890;2023-07-20T02:21:04;15.60;99.90
26224;DHT22;14820;48.682;8.890;2023-07-20T02:23:30;15.50;99.90
26224;DHT22;14820;48.682;8.890;2023-07-20T02:25:56;15.50;99.90
26224;DHT22;14820;48.682;8.890;2023-07-20T02:28:21;15.50;99.90
26224;DHT22;14820;48.682;8.890;2023-07-20T02:30:47;15.40;99.90
26224;DHT22;14820;48.682;8.890;2023-07-20T02:33:15;15.30;99.90
26224;DHT22;14820;48.682;8.890;2023-07-20T02:35:40;15.20;99.90
26224;DHT22;14820;48.682;8.890;2023-07-20T02:38:06;15.20;99.90
26224;DHT22;14820;48.682;8.890;2023-07-20T02:40:32;15.20;99.90
26224;DHT22;14820;48.682;8.890;2023-07-20T02:42:58;15.20;99.90
26224;DHT22;14820;48.682;8.890;2023-07-20T02:45:23;15.10;99.90
26224;DHT22;14820;48.682;8.890;2023-07-20T02:47:49;15.00;99.90
26224;DHT22;14820;48.682;8.890;2023-07-20T02:50:15;15.00;99.90
26224;DHT22;14820;48.682;8.890;2023-07-20T02:52:40;15.10;99.90
26224;DHT22;14820;48.682;8.890;2023-07-20T02:55:06;15.10;99.90
26224;DHT22;14820;48.682;8.890;2023-07-20T02:57:32;15.20;99.90
26224;DHT22;14820;48.682;8.890;2023-07-20T02:59:58;15.20;99.90
26224;DHT22;14820;48.682;8.890;2023-07-20T03:02:23;15.10;99.90
26224;DHT22;14820;48.682;8.890;2023-07-20T03:04:49;15.10;99.90
26224;DHT22;14820;48.682;8.890;2023-07-20T03:07:14;15.00;99.90
26224;DHT22;14820;48.682;8.890;2023-07-20T03:09:40;15.00;99.90
26224;DHT22;14820;48.682;8.890;2023-07-20T03:12:06;14.90;99.90
26224;DHT22;14820;48.682;8.890;2023-07-20T03:14:32;14.80;99.90
26224;DHT22;14820;48.682;8.890;2023-07-20T03:16:58;14.80;99.90
26224;DHT22;14820;48.682;8.890;2023-07-20T03:19:23;14.80;99.90
26224;DHT22;14820;48.682;8.890;2023-07-20T03:21:49;14.70;99.90
26224;DHT22;14820;48.682;8.890;2023-07-20T03:24:16;14.70;99.90
26224;DHT22;14820;48.682;8.890;2023-07-20T03:26:42;14.60;99.90
26224;DHT22;14820;48.682;8.890;2023-07-20T03:29:07;14.80;99.90
26224;DHT22;14820;48.682;8.890;2023-07-20T03:31:33;14.80;99.90
26224;DHT22;14820;48.682;8.890;2023-07-20T03:33:59;14.90;99.90
26224;DHT22;14820;48.682;8.890;2023-07-20T03:36:25;14.90;99.90
26224;DHT22;14820;48.682;8.890;2023-07-20T03:38:50;14.90;99.90
26224;DHT22;14820;48.682;8.890;2023-07-20T03:41:16;14.90;99.90
26224;DHT22;14820;48.682;8.890;2023-07-20T03:43:42;14.80;99.90
26224;DHT22;14820;48.682;8.890;2023-07-20T03:46:07;14.70;99.90
26224;DHT22;14820;48.682;8.890;2023-07-20T03:48:33;14.80;99.90
26224;DHT22;14820;48.682;8.890;2023-07-20T03:50:59;14.80;99.90
26224;DHT22;14820;48.682;8.890;2023-07-20T03:53:28;14.70;99.90
26224;DHT22;14820;48.682;8.890;2023-07-20T03:55:53;14.60;99.90
26224;DHT22;14820;48.682;8.890;2023-07-20T03:58:20;14.60;99.90
26224;DHT22;14820;48.682;8.890;2023-07-20T04:00:51;14.60;99.90
26224;DHT22;14820;48.682;8.890;2023-07-20T04:03:18;14.70;99.90
26224;DHT22;14820;48.682;8.890;2023-07-20T04:05:44;14.80;99.90
26224;DHT22;14820;48.682;8.890;2023-07-20T04:08:10;14.70;99.90
26224;DHT22;14820;48.682;8.890;2023-07-20T04:10:39;14.70;99.90
26224;DHT22;14820;48.682;8.890;2023-07-20T04:13:08;14.70;99.90
26224;DHT22;14820;48.682;8.890;2023-07-20T04:15:34;14.80;99.90
26224;DHT22;14820;48.682;8.890;2023-07-20T04:17:59;14.80;99.90
26224;DHT22;14820;48.682;8.890;2023-07-20T04:20:26;14.90;99.90
26224;DHT22;14820;48.682;8.890;2023-07-20T04:22:52;15.00;99.90
26224;DHT22;14820;48.682;8.890;2023-07-20T04:25:18;15.10;99.90
26224;DHT22;14820;48.682;8.890;2023-07-20T04:27:43;15.10;99.90
26224;DHT22;14820;48.682;8.890;2023-07-20T04:30:10;15.20;99.90
26224;DHT22;14820;48.682;8.890;2023-07-20T04:32:37;15.20;99.90
26224;DHT22;14820;48.682;8.890;2023-07-20T04:35:06;15.20;99.90
26224;DHT22;14820;48.682;8.890;2023-07-20T04:37:33;15.30;99.90
26224;DHT22;14820;48.682;8.890;2023-07-20T04:39:58;15.30;99.90
26224;DHT22;14820;48.682;8.890;2023-07-20T04:42:24;15.40;99.90
26224;DHT22;14820;48.682;8.890;2023-07-20T04:44:50;15.40;99.90
26224;DHT22;14820;48.682;8.890;2023-07-20T04:47:15;15.40;99.90
26224;DHT22;14820;48.682;8.890;2023-07-20T04:49:41;15.30;99.90
26224;DHT22;14820;48.682;8.890;2023-07-20T04:52:07;15.20;99.90
26224;DHT22;14820;48.682;8.890;2023-07-20T04:54:33;15.20;99.90
26224;DHT22;14820;48.682;8.890;2023-07-20T04:56:58;15.10;99.90
26224;DHT22;14820;48.682;8.890;2023-07-20T04:59:24;15.10;99.90
26224;DHT22;14820;48.682;8.890;2023-07-20T05:01:49;15.10;99.90
26224;DHT22;14820;48.682;8.890;2023-07-20T05:04:15;15.10;99.90
26224;DHT22;14820;48.682;8.890;2023-07-20T05:06:41;15.10;99.90
26224;DHT22;14820;48.682;8.890;2023-07-20T05:09:06;15.20;99.90
26224;DHT22;14820;48.682;8.890;2023-07-20T05:11:33;15.20;99.90
26224;DHT22;14820;48.682;8.890;2023-07-20T05:13:59;15.20;99.90
26224;DHT22;14820;48.682;8.890;2023-07-20T05:16:25;15.30;99.90
26224;DHT22;14820;48.682;8.890;2023-07-20T05:18:50;15.30;99.90
26224;DHT22;14820;48.682;8.890;2023-07-20T05:21:16;15.30;99.90
26224;DHT22;14820;48.682;8.890;2023-07-20T05:23:42;15.40;99.90
26224;DHT22;14820;48.682;8.890;2023-07-20T05:26:08;15.40;99.90
26224;DHT22;14820;48.682;8.890;2023-07-20T05:28:34;15.50;99.90
26224;DHT22;14820;48.682;8.890;2023-07-20T05:31:02;15.60;99.90
26224;DHT22;14820;48.682;8.890;2023-07-20T05:33:28;15.70;99.90
26224;DHT22;14820;48.682;8.890;2023-07-20T05:35:54;15.70;99.90
26224;DHT22;14820;48.682;8.890;2023-07-20T05:38:19;15.80;99.90
26224;DHT22;14820;48.682;8.890;2023-07-20T05:40:45;15.80;99.90
26224;DHT22;14820;48.682;8.890;2023-07-20T05:43:12;15.90;99.90
26224;DHT22;14820;48.682;8.890;2023-07-20T05:45:41;15.90;99.90
26224;DHT22;14820;48.682;8.890;2023-07-20T05:48:07;15.90;99.90
26224;DHT22;14820;48.682;8.890;2023-07-20T05:50:35;16.00;99.90
26224;DHT22;14820;48.682;8.890;2023-07-20T05:53:00;16.00;99.90
26224;DHT22;14820;48.682;8.890;2023-07-20T05:55:26;16.10;99.90
26224;DHT22;14820;48.682;8.890;2023-07-20T05:57:51;16.20;99.90
26224;DHT22;14820;48.682;8.890;2023-07-20T06:00:17;16.20;99.90
26224;DHT22;14820;48.682;8.890;2023-07-20T06:02:44;16.30;99.90
26224;DHT22;14820;48.682;8.890;2023-07-20T06:05:10;16.30;99.90
26224;DHT22;14820;48.682;8.890;2023-07-20T06:07:38;16.40;99.90
26224;DHT22;14820;48.682;8.890;2023-07-20T06:10:05;16.50;99.90
26224;DHT22;14820;48.682;8.890;2023-07-20T06:12:33;16.60;99.90
26224;DHT22;14820;48.682;8.890;2023-07-20T06:15:03;16.60;99.90
26224;DHT22;14820;48.682;8.890;2023-07-20T06:17:29;16.70;99.90
26224;DHT22;14820;48.682;8.890;2023-07-20T06:19:55;16.70;99.90
26224;DHT22;14820;48.682;8.890;2023-07-20T06:22:20;16.80;99.90
26224;DHT22;14820;48.682;8.890;2023-07-20T06:24:46;16.80;99.90
26224;DHT22;14820;48.682;8.890;2023-07-20T06:27:11;16.80;99.90
26224;DHT22;14820;48.682;8.890;2023-07-20T06:29:38;16.90;99.90
26224;DHT22;14820;48.682;8.890;2023-07-20T06:32:04;16.90;99.90
26224;DHT22;14820;48.682;8.890;2023-07-20T06:34:30;17.00;99.90
26224;DHT22;14820;48.682;8.890;2023-07-20T06:36:56;17.00;99.90
26224;DHT22;14820;48.682;8.890;2023-07-20T06:39:22;17.10;99.90
26224;DHT22;14820;48.682;8.890;2023-07-20T06:41:48;17.10;99.90
26224;DHT22;14820;48.682;8.890;2023-07-20T06:44:13;17.20;99.90
26224;DHT22;14820;48.682;8.890;2023-07-20T06:46:39;17.20;99.90
26224;DHT22;14820;48.682;8.890;2023-07-20T06:49:08;17.30;99.90
26224;DHT22;14820;48.682;8.890;2023-07-20T06:51:33;17.30;99.90
26224;DHT22;14820;48.682;8.890;2023-07-20T06:53:59;17.40;99.90
26224;DHT22;14820;48.682;8.890;2023-07-20T06:56:25;17.40;99.90
26224;DHT22;14820;48.682;8.890;2023-07-20T06:58:50;17.50;99.90
26224;DHT22;14820;48.682;8.890;2023-07-20T07:01:16;17.60;99.90
26224;DHT22;14820;48.682;8.890;2023-07-20T07:03:42;17.60;99.90
26224;DHT22;14820;48.682;8.890;2023-07-20T07:06:09;17.80;99.90
26224;DHT22;14820;48.682;8.890;2023-07-20T07:08:35;17.90;99.90
26224;DHT22;14820;48.682;8.890;2023-07-20T07:11:01;18.00;99.90
26224;DHT22;14820;48.682;8.890;2023-07-20T07:13:27;18.10;99.90
26224;DHT22;14820;48.682;8.890;2023-07-20T07:15:53;18.20;99.90
26224;DHT22;14820;48.682;8.890;2023-07-20T07:18:18;18.30;99.90
26224;DHT22;14820;48.682;8.890;2023-07-20T07:20:51;18.30;99.90
26224;DHT22;14820;48.682;8.890;2023-07-20T07:23:16;18.40;99.90
26224;DHT22;14820;48.682;8.890;2023-07-20T07:25:42;18.50;99.90
26224;DHT22;14820;48.682;8.890;2023-07-20T07:28:07;18.60;99.90
26224;DHT22;14820;48.682;8.890;2023-07-20T07:30:33;18.70;99.90
26224;DHT22;14820;48.682;8.890;2023-07-20T07:32:59;18.70;99.90
26224;DHT22;14820;48.682;8.890;2023-07-20T07:35:25;18.80;99.90
26224;DHT22;14820;48.682;8.890;2023-07-20T07:37:50;18.80;99.90
26224;DHT22;14820;48.682;8.890;2023-07-20T07:40:16;18.80;99.90
26224;DHT22;14820;48.682;8.890;2023-07-20T07:42:42;18.90;99.90
26224;DHT22;14820;48.682;8.890;2023-07-20T07:45:08;19.00;99.90
26224;DHT22;14820;48.682;8.890;2023-07-20T07:47:34;18.90;99.90
26224;DHT22;14820;48.682;8.890;2023-07-20T07:49:59;19.10;99.90
26224;DHT22;14820;48.682;8.890;2023-07-20T07:52:25;19.10;99.90
26224;DHT22;14820;48.682;8.890;2023-07-20T07:54:51;19.10;99.90
26224;DHT22;14820;48.682;8.890;2023-07-20T07:57:16;19.20;99.90
26224;DHT22;14820;48.682;8.890;2023-07-20T07:59:42;19.30;99.90
26224;DHT22;14820;48.682;8.890;2023-07-20T08:02:07;19.30;99.90
26224;DHT22;14820;48.682;8.890;2023-07-20T08:04:33;19.50;99.90
26224;DHT22;14820;48.682;8.890;2023-07-20T08:06:59;19.50;99.90
26224;DHT22;14820;48.682;8.890;2023-07-20T08:09:25;19.60;99.90
26224;DHT22;14820;48.682;8.890;2023-07-20T08:11:51;19.60;99.90
26224;DHT22;14820;48.682;8.890;2023-07-20T08:14:16;19.70;99.90
26224;DHT22;14820;48.682;8.890;2023-07-20T08:16:42;19.80;99.90
26224;DHT22;14820;48.682;8.890;2023-07-20T08:19:08;19.80;99.90
26224;DHT22;14820;48.682;8.890;2023-07-20T08:21:34;19.90;99.90
26224;DHT22;14820;48.682;8.890;2023-07-20T08:23:59;20.00;99.90
26224;DHT22;14820;48.682;8.890;2023-07-20T08:26:25;20.10;99.90
26224;DHT22;14820;48.682;8.890;2023-07-20T08:28:51;20.10;99.90
26224;DHT22;14820;48.682;8.890;2023-07-20T08:31:17;20.10;99.90
26224;DHT22;14820;48.682;8.890;2023-07-20T08:33:43;20.00;99.90
26224;DHT22;14820;48.682;8.890;2023-07-20T08:36:09;20.00;99.90
26224;DHT22;14820;48.682;8.890;2023-07-20T08:38:34;19.90;99.90
26224;DHT22;14820;48.682;8.890;2023-07-20T08:41:00;20.00;99.90
26224;DHT22;14820;48.682;8.890;2023-07-20T08:43:27;19.90;99.90
26224;DHT22;14820;48.682;8.890;2023-07-20T08:45:54;20.00;99.90
26224;DHT22;14820;48.682;8.890;2023-07-20T08:48:24;20.10;99.90
26224;DHT22;14820;48.682;8.890;2023-07-20T08:50:51;20.30;99.90
26224;DHT22;14820;48.682;8.890;2023-07-20T08:53:18;20.30;99.90
26224;DHT22;14820;48.682;8.890;2023-07-20T08:55:45;20.40;99.90
26224;DHT22;14820;48.682;8.890;2023-07-20T08:58:13;20.50;99.90
26224;DHT22;14820;48.682;8.890;2023-07-20T09:00:41;20.50;99.90
26224;DHT22;14820;48.682;8.890;2023-07-20T09:03:07;20.40;99.90
26224;DHT22;14820;48.682;8.890;2023-07-20T09:05:33;20.40;99.90
26224;DHT22;14820;48.682;8.890;2023-07-20T09:08:01;20.40;99.90
26224;DHT22;14820;48.682;8.890;2023-07-20T09:10:29;20.40;99.90
26224;DHT22;14820;48.682;8.890;2023-07-20T09:12:55;20.40;99.90
26224;DHT22;14820;48.682;8.890;2023-07-20T09:15:22;20.30;99.90
26224;DHT22;14820;48.682;8.890;2023-07-20T09:17:51;20.30;99.90
26224;DHT22;14820;48.682;8.890;2023-07-20T09:20:20;20.30;99.90
26224;DHT22;14820;48.682;8.890;2023-07-20T09:22:46;20.30;99.90
26224;DHT22;14820;48.682;8.890;2023-07-20T09:25:15;20.30;99.90
26224;DHT22;14820;48.682;8.890;2023-07-20T09:27:43;20.40;99.90
26224;DHT22;14820;48.682;8.890;2023-07-20T09:30:09;20.60;99.90
26224;DHT22;14820;48.682;8.890;2023-07-20T09:32:43;20.70;99.90
26224;DHT22;14820;48.682;8.890;2023-07-20T09:35:17;20.80;99.90
26224;DHT22;14820;48.682;8.890;2023-07-20T09:37:58;21.00;99.90
26224;DHT22;14820;48.682;8.890;2023-07-20T09:40:25;21.10;99.90
26224;DHT22;14820;48.682;8.890;2023-07-20T09:42:53;21.10;99.40
26224;DHT22;14820;48.682;8.890;2023-07-20T09:45:34;21.30;97.90
26224;DHT22;14820;48.682;8.890;2023-07-20T09:48:05;21.50;98.00
26224;DHT22;14820;48.682;8.890;2023-07-20T09:50:50;21.60;99.30
26224;DHT22;14820;48.682;8.890;2023-07-20T09:53:17;21.50;99.10
26224;DHT22;14820;48.682;8.890;2023-07-20T09:55:47;21.30;98.80
26224;DHT22;14820;48.682;8.890;2023-07-20T09:58:14;21.20;98.80
26224;DHT22;14820;48.682;8.890;2023-07-20T10:00:41;21.10;98.90
26224;DHT22;14820;48.682;8.890;2023-07-20T10:03:19;21.10;98.80
26224;DHT22;14820;48.682;8.890;2023-07-20T10:05:49;21.00;98.40
26224;DHT22;14820;48.682;8.890;2023-07-20T10:08:17;21.10;98.30
26224;DHT22;14820;48.682;8.890;2023-07-20T10:10:44;21.20;98.30
26224;DHT22;14820;48.682;8.890;2023-07-20T10:13:18;21.40;97.60
26224;DHT22;14820;48.682;8.890;2023-07-20T10:15:50;21.50;97.20
26224;DHT22;14820;48.682;8.890;2023-07-20T10:18:25;21.60;95.40
26224;DHT22;14820;48.682;8.890;2023-07-20T10:20:55;21.70;96.00
26224;DHT22;14820;48.682;8.890;2023-07-20T10:23:22;21.80;96.50
26224;DHT22;14820;48.682;8.890;2023-07-20T10:25:50;21.80;97.10
26224;DHT22;14820;48.682;8.890;2023-07-20T10:28:16;21.90;96.80
26224;DHT22;14820;48.682;8.890;2023-07-20T10:30:42;21.90;96.90
26224;DHT22;14820;48.682;8.890;2023-07-20T10:33:08;22.00;96.40
26224;DHT22;14820;48.682;8.890;2023-07-20T10:35:56;21.90;96.30
26224;DHT22;14820;48.682;8.890;2023-07-20T10:38:39;21.90;95.80
26224;DHT22;14820;48.682;8.890;2023-07-20T10:43:45;21.60;95.70
26224;DHT22;14820;48.682;8.890;2023-07-20T10:46:11;21.50;95.60
26224;DHT22;14820;48.682;8.890;2023-07-20T10:49:07;21.60;95.40
26224;DHT22;14820;48.682;8.890;2023-07-20T10:51:47;21.70;95.40
26224;DHT22;14820;48.682;8.890;2023-07-20T10:56:42;21.80;95.10
26224;DHT22;14820;48.682;8.890;2023-07-20T10:59:37;21.80;94.60
26224;DHT22;14820;48.682;8.890;2023-07-20T11:02:06;22.10;94.50
26224;DHT22;14820;48.682;8.890;2023-07-20T11:04:43;22.20;93.80
26224;DHT22;14820;48.682;8.890;2023-07-20T11:07:09;22.40;93.30
26224;DHT22;14820;48.682;8.890;2023-07-20T11:09:39;22.40;93.30
26224;DHT22;14820;48.682;8.890;2023-07-20T11:12:15;22.40;93.10
26224;DHT22;14820;48.682;8.890;2023-07-20T11:14:43;22.50;92.60
26224;DHT22;14820;48.682;8.890;2023-07-20T11:17:15;22.50;92.10
26224;DHT22;14820;48.682;8.890;2023-07-20T11:19:41;22.40;91.90
26224;DHT22;14820;48.682;8.890;2023-07-20T11:22:07;22.50;91.80
26224;DHT22;14820;48.682;8.890;2023-07-20T11:24:34;22.50;92.20
26224;DHT22;14820;48.682;8.890;2023-07-20T11:27:00;22.50;91.80
26224;DHT22;14820;48.682;8.890;2023-07-20T11:29:28;22.60;91.70
26224;DHT22;14820;48.682;8.890;2023-07-20T11:31:54;22.60;91.90
26224;DHT22;14820;48.682;8.890;2023-07-20T11:34:21;22.80;92.20
26224;DHT22;14820;48.682;8.890;2023-07-20T11:36:48;22.90;91.70
26224;DHT22;14820;48.682;8.890;2023-07-20T11:39:19;23.10;91.10
26224;DHT22;14820;48.682;8.890;2023-07-20T11:41:49;23.10;90.50
26224;DHT22;14820;48.682;8.890;2023-07-20T11:44:19;23.10;90.70
26224;DHT22;14820;48.682;8.890;2023-07-20T11:46:46;23.10;90.60
26224;DHT22;14820;48.682;8.890;2023-07-20T11:49:12;23.00;90.30
26224;DHT22;14820;48.682;8.890;2023-07-20T11:51:39;22.90;90.00
26224;DHT22;14820;48.682;8.890;2023-07-20T11:54:07;22.90;90.10
26224;DHT22;14820;48.682;8.890;2023-07-20T11:56:33;23.10;89.90
26224;DHT22;14820;48.682;8.890;2023-07-20T11:58:59;23.10;90.20
26224;DHT22;14820;48.682;8.890;2023-07-20T12:01:27;23.00;88.70
26224;DHT22;14820;48.682;8.890;2023-07-20T12:03:59;23.10;90.00
26224;DHT22;14820;48.682;8.890;2023-07-20T12:06:25;23.10;90.40
26224;DHT22;14820;48.682;8.890;2023-07-20T12:08:55;23.10;89.40
26224;DHT22;14820;48.682;8.890;2023-07-20T12:11:50;22.90;88.70
26224;DHT22;14820;48.682;8.890;2023-07-20T12:14:16;22.80;89.70
26224;DHT22;14820;48.682;8.890;2023-07-20T12:16:42;22.80;89.60
26224;DHT22;14820;48.682;8.890;2023-07-20T12:19:10;22.90;88.80
26224;DHT22;14820;48.682;8.890;2023-07-20T12:21:38;23.00;88.30
26224;DHT22;14820;48.682;8.890;2023-07-20T12:24:06;23.10;88.50
26224;DHT22;14820;48.682;8.890;2023-07-20T12:26:32;23.10;88.90
26224;DHT22;14820;48.682;8.890;2023-07-20T12:28:59;23.20;87.60
26224;DHT22;14820;48.682;8.890;2023-07-20T12:31:25;23.10;86.30
26224;DHT22;14820;48.682;8.890;2023-07-20T12:33:52;23.10;87.10
26224;DHT22;14820;48.682;8.890;2023-07-20T12:36:18;23.00;85.30
26224;DHT22;14820;48.682;8.890;2023-07-20T12:38:45;23.00;87.10
26224;DHT22;14820;48.682;8.890;2023-07-20T12:41:12;23.10;86.80
26224;DHT22;14820;48.682;8.890;2023-07-20T12:43:39;23.30;87.30
26224;DHT22;14820;48.682;8.890;2023-07-20T12:46:06;23.40;86.70
26224;DHT22;14820;48.682;8.890;2023-07-20T12:48:31;23.60;87.10
26224;DHT22;14820;48.682;8.890;2023-07-20T12:50:57;23.80;83.90
26224;DHT22;14820;48.682;8.890;2023-07-20T12:53:23;23.90;83.30
26224;DHT22;14820;48.682;8.890;2023-07-20T12:55:49;23.90;81.60
26224;DHT22;14820;48.682;8.890;2023-07-20T12:58:15;23.90;83.00
26224;DHT22;14820;48.682;8.890;2023-07-20T13:00:41;23.90;82.60
26224;DHT22;14820;48.682;8.890;2023-07-20T13:03:07;23.90;81.90
26224;DHT22;14820;48.682;8.890;2023-07-20T13:05:34;24.00;83.70
26224;DHT22;14820;48.682;8.890;2023-07-20T13:08:00;23.90;83.50
26224;DHT22;14820;48.682;8.890;2023-07-20T13:10:26;23.80;83.00
26224;DHT22;14820;48.682;8.890;2023-07-20T13:12:52;23.70;82.70
26224;DHT22;14820;48.682;8.890;2023-07-20T13:15:17;23.60;82.30
26224;DHT22;14820;48.682;8.890;2023-07-20T13:17:44;23.60;82.90
26224;DHT22;14820;48.682;8.890;2023-07-20T13:20:10;23.40;82.00
26224;DHT22;14820;48.682;8.890;2023-07-20T13:22:39;23.50;82.60
26224;DHT22;14820;48.682;8.890;2023-07-20T13:25:08;23.70;84.10
26224;DHT22;14820;48.682;8.890;2023-07-20T13:27:35;23.90;83.50
26224;DHT22;14820;48.682;8.890;2023-07-20T13:30:02;23.90;82.50
26224;DHT22;14820;48.682;8.890;2023-07-20T13:32:32;24.00;81.90
26224;DHT22;14820;48.682;8.890;2023-07-20T13:34:58;24.10;82.90
26224;DHT22;14820;48.682;8.890;2023-07-20T13:37:23;24.10;81.20
26224;DHT22;14820;48.682;8.890;2023-07-20T13:39:49;23.90;80.00
26224;DHT22;14820;48.682;8.890;2023-07-20T13:42:14;23.90;81.20
26224;DHT22;14820;48.682;8.890;2023-07-20T13:44:42;23.90;80.50
26224;DHT22;14820;48.682;8.890;2023-07-20T13:47:08;23.90;80.60
26224;DHT22;14820;48.682;8.890;2023-07-20T13:49:33;24.00;80.80
26224;DHT22;14820;48.682;8.890;2023-07-20T13:51:59;24.00;81.00
26224;DHT22;14820;48.682;8.890;2023-07-20T13:54:25;23.90;80.00
26224;DHT22;14820;48.682;8.890;2023-07-20T13:56:51;23.90;80.80
26224;DHT22;14820;48.682;8.890;2023-07-20T13:59:20;23.90;82.00
26224;DHT22;14820;48.682;8.890;2023-07-20T14:01:45;23.90;82.90
26224;DHT22;14820;48.682;8.890;2023-07-20T14:04:11;23.80;83.00
26224;DHT22;14820;48.682;8.890;2023-07-20T14:06:37;23.70;82.90
26224;DHT22;14820;48.682;8.890;2023-07-20T14:09:03;23.70;82.50
26224;DHT22;14820;48.682;8.890;2023-07-20T14:11:29;23.70;81.70
26224;DHT22;14820;48.682;8.890;2023-07-20T14:13:55;23.70;82.40
26224;DHT22;14820;48.682;8.890;2023-07-20T14:16:21;23.70;83.20
26224;DHT22;14820;48.682;8.890;2023-07-20T14:18:48;23.70;82.30
26224;DHT22;14820;48.682;8.890;2023-07-20T14:21:17;23.90;82.50
26224;DHT22;14820;48.682;8.890;2023-07-20T14:23:49;24.00;83.90
26224;DHT22;14820;48.682;8.890;2023-07-20T14:26:15;24.10;82.30
26224;DHT22;14820;48.682;8.890;2023-07-20T14:28:41;24.10;82.40
26224;DHT22;14820;48.682;8.890;2023-07-20T14:31:07;24.00;80.90
26224;DHT22;14820;48.682;8.890;2023-07-20T14:33:33;24.00;82.50
26224;DHT22;14820;48.682;8.890;2023-07-20T14:35:59;24.00;82.40
26224;DHT22;14820;48.682;8.890;2023-07-20T14:38:27;23.90;83.30
26224;DHT22;14820;48.682;8.890;2023-07-20T14:40:53;23.90;83.40
26224;DHT22;14820;48.682;8.890;2023-07-20T14:43:19;23.90;82.20
26224;DHT22;14820;48.682;8.890;2023-07-20T14:45:45;24.10;83.10
26224;DHT22;14820;48.682;8.890;2023-07-20T14:48:11;24.10;81.40
26224;DHT22;14820;48.682;8.890;2023-07-20T14:50:36;24.10;81.70
26224;DHT22;14820;48.682;8.890;2023-07-20T14:53:02;24.10;80.60
26224;DHT22;14820;48.682;8.890;2023-07-20T14:55:28;24.00;81.30
26224;DHT22;14820;48.682;8.890;2023-07-20T14:57:54;24.10;81.20
26224;DHT22;14820;48.682;8.890;2023-07-20T15:00:20;24.20;81.80
26224;DHT22;14820;48.682;8.890;2023-07-20T15:02:46;24.40;80.60
26224;DHT22;14820;48.682;8.890;2023-07-20T15:05:12;24.30;80.20
26224;DHT22;14820;48.682;8.890;2023-07-20T15:07:45;24.30;80.20
26224;DHT22;14820;48.682;8.890;2023-07-20T15:10:11;24.20;79.40
26224;DHT22;14820;48.682;8.890;2023-07-20T15:12:36;24.10;80.50
26224;DHT22;14820;48.682;8.890;2023-07-20T15:15:07;24.10;79.80
26224;DHT22;14820;48.682;8.890;2023-07-20T15:17:36;24.10;80.00
26224;DHT22;14820;48.682;8.890;2023-07-20T15:20:03;24.00;80.60
26224;DHT22;14820;48.682;8.890;2023-07-20T15:22:35;24.00;80.20
26224;DHT22;14820;48.682;8.890;2023-07-20T15:25:04;24.10;79.80
26224;DHT22;14820;48.682;8.890;2023-07-20T15:27:30;24.00;79.20
26224;DHT22;14820;48.682;8.890;2023-07-20T15:29:56;24.00;80.60
26224;DHT22;14820;48.682;8.890;2023-07-20T15:32:22;24.10;79.90
26224;DHT22;14820;48.682;8.890;2023-07-20T15:34:48;24.10;79.30
26224;DHT22;14820;48.682;8.890;2023-07-20T15:37:13;24.10;78.30
26224;DHT22;14820;48.682;8.890;2023-07-20T15:39:39;24.10;78.60
26224;DHT22;14820;48.682;8.890;2023-07-20T15:42:06;24.10;79.00
26224;DHT22;14820;48.682;8.890;2023-07-20T15:44:31;24.10;77.90